sensor_id;sensor_type;location;lat;lon;timestamp;P1;durP1;ratioP1;P2;durP2;ratioP2
14903;SDS011;7543;53.148;8.234;2023-06-26T00:00:27;5.90;;;4.65;;
14903;SDS011;7543;53.148;8.234;2023-06-26T00:02:56;5.97;;;4.45;;
14903;SDS011;7543;53.148;8.234;2023-06-26T00:05:25;6.55;;;4.63;;
14903;SDS011;7543;53.148;8.234;2023-06-26T00:07:54;5.38;;;4.30;;
14903;SDS011;7543;53.148;8.234;2023-06-26T00:10:23;5.75;;;4.43;;
14903;SDS011;7543;53.148;8.234;2023-06-26T00:12:52;6.32;;;4.75;;
14903;SDS011;7543;53.148;8.234;2023-06-26T00:15:20;6.03;;;5.07;;
14903;SDS011;7543;53.148;8.234;2023-06-26T00:17:48;8.20;;;5.22;;
14903;SDS011;7543;53.148;8.234;2023-06-26T00:20:17;7.25;;;4.88;;
14903;SDS011;7543;53.148;8.234;2023-06-26T00:22:47;7.72;;;5.18;;
14903;SDS011;7543;53.148;8.234;2023-06-26T00:25:17;6.53;;;4.93;;
14903;SDS011;7543;53.148;8.234;2023-06-26T00:27:45;5.60;;;4.50;;
14903;SDS011;7543;53.148;8.234;2023-06-26T00:30:13;8.75;;;5.07;;
14903;SDS011;7543;53.148;8.234;2023-06-26T00:32:42;6.97;;;5.22;;
14903;SDS011;7543;53.148;8.234;2023-06-26T00:35:10;6.25;;;5.00;;
14903;SDS011;7543;53.148;8.234;2023-06-26T00:37:38;7.00;;;5.28;;
14903;SDS011;7543;53.148;8.234;2023-06-26T00:40:09;7.40;;;5.15;;
14903;SDS011;7543;53.148;8.234;2023-06-26T00:42:38;6.80;;;5.13;;
14903;SDS011;7543;53.148;8.234;2023-06-26T00:45:06;6.30;;;5.28;;
14903;SDS011;7543;53.148;8.234;2023-06-26T00:47:35;8.15;;;5.40;;
14903;SDS011;7543;53.148;8.234;2023-06-26T00:50:03;7.90;;;5.22;;
14903;SDS011;7543;53.148;8.234;2023-06-26T00:52:32;5.40;;;4.85;;
14903;SDS011;7543;53.148;8.234;2023-06-26T00:55:01;6.18;;;4.88;;
14903;SDS011;7543;53.148;8.234;2023-06-26T00:57:31;6.57;;;5.05;;
14903;SDS011;7543;53.148;8.234;2023-06-26T01:00:00;7.43;;;5.10;;
14903;SDS011;7543;53.148;8.234;2023-06-26T01:02:30;7.35;;;4.90;;
14903;SDS011;7543;53.148;8.234;2023-06-26T01:05:00;7.60;;;5.22;;
14903;SDS011;7543;53.148;8.234;2023-06-26T01:07:35;7.13;;;4.85;;
14903;SDS011;7543;53.148;8.234;2023-06-26T01:10:04;6.28;;;5.18;;
14903;SDS011;7543;53.148;8.234;2023-06-26T01:12:35;8.25;;;5.32;;
14903;SDS011;7543;53.148;8.234;2023-06-26T01:15:05;6.38;;;5.35;;
14903;SDS011;7543;53.148;8.234;2023-06-26T01:17:36;6.75;;;5.43;;
14903;SDS011;7543;53.148;8.234;2023-06-26T01:20:05;7.43;;;4.93;;
14903;SDS011;7543;53.148;8.234;2023-06-26T01:22:36;6.97;;;5.45;;
14903;SDS011;7543;53.148;8.234;2023-06-26T01:25:15;7.32;;;6.00;;
14903;SDS011;7543;53.148;8.234;2023-06-26T01:27:50;6.40;;;4.78;;
14903;SDS011;7543;53.148;8.234;2023-06-26T01:30:18;7.85;;;5.22;;
14903;SDS011;7543;53.148;8.234;2023-06-26T01:32:48;7.70;;;5.60;;
14903;SDS011;7543;53.148;8.234;2023-06-26T01:35:16;7.22;;;5.05;;
14903;SDS011;7543;53.148;8.234;2023-06-26T01:37:45;7.32;;;5.90;;
14903;SDS011;7543;53.148;8.234;2023-06-26T01:40:13;8.43;;;5.60;;
14903;SDS011;7543;53.148;8.234;2023-06-26T01:42:41;7.82;;;5.25;;
14903;SDS011;7543;53.148;8.234;2023-06-26T01:45:12;7.50;;;5.10;;
14903;SDS011;7543;53.148;8.234;2023-06-26T01:47:44;7.35;;;5.20;;
14903;SDS011;7543;53.148;8.234;2023-06-26T01:50:18;7.28;;;5.55;;
14903;SDS011;7543;53.148;8.234;2023-06-26T01:52:52;7.82;;;5.53;;
14903;SDS011;7543;53.148;8.234;2023-06-26T01:55:23;7.35;;;5.57;;
14903;SDS011;7543;53.148;8.234;2023-06-26T01:57:56;6.63;;;5.13;;
14903;SDS011;7543;53.148;8.234;2023-06-26T02:00:27;7.63;;;5.68;;
14903;SDS011;7543;53.148;8.234;2023-06-26T02:02:55;7.20;;;5.43;;
14903;SDS011;7543;53.148;8.234;2023-06-26T02:05:25;6.78;;;5.70;;
14903;SDS011;7543;53.148;8.234;2023-06-26T02:07:53;6.78;;;5.35;;
14903;SDS011;7543;53.148;8.234;2023-06-26T02:10:23;7.57;;;5.30;;
14903;SDS011;7543;53.148;8.234;2023-06-26T02:12:51;8.55;;;5.78;;
14903;SDS011;7543;53.148;8.234;2023-06-26T02:15:19;9.43;;;6.10;;
14903;SDS011;7543;53.148;8.234;2023-06-26T02:17:49;6.32;;;5.32;;
14903;SDS011;7543;53.148;8.234;2023-06-26T02:20:18;8.73;;;5.93;;
14903;SDS011;7543;53.148;8.234;2023-06-26T02:22:46;9.57;;;5.43;;
14903;SDS011;7543;53.148;8.234;2023-06-26T02:25:14;8.13;;;5.75;;
14903;SDS011;7543;53.148;8.234;2023-06-26T02:27:43;7.68;;;6.03;;
14903;SDS011;7543;53.148;8.234;2023-06-26T02:30:12;6.22;;;5.32;;
14903;SDS011;7543;53.148;8.234;2023-06-26T02:32:41;9.95;;;6.15;;
14903;SDS011;7543;53.148;8.234;2023-06-26T02:35:10;7.70;;;5.53;;
14903;SDS011;7543;53.148;8.234;2023-06-26T02:37:42;8.77;;;5.68;;
14903;SDS011;7543;53.148;8.234;2023-06-26T02:40:11;8.50;;;5.72;;
14903;SDS011;7543;53.148;8.234;2023-06-26T02:42:41;8.23;;;5.60;;
14903;SDS011;7543;53.148;8.234;2023-06-26T02:45:10;10.63;;;5.53;;
14903;SDS011;7543;53.148;8.234;2023-06-26T02:47:38;8.02;;;5.85;;
14903;SDS011;7543;53.148;8.234;2023-06-26T02:50:08;7.15;;;5.20;;
14903;SDS011;7543;53.148;8.234;2023-06-26T02:52:57;7.25;;;5.63;;
14903;SDS011;7543;53.148;8.234;2023-06-26T02:55:26;8.20;;;5.93;;
14903;SDS011;7543;53.148;8.234;2023-06-26T02:57:55;7.60;;;5.80;;
14903;SDS011;7543;53.148;8.234;2023-06-26T03:00:24;8.82;;;6.50;;
14903;SDS011;7543;53.148;8.234;2023-06-26T03:02:54;7.20;;;5.82;;
14903;SDS011;7543;53.148;8.234;2023-06-26T03:05:25;8.88;;;5.53;;
14903;SDS011;7543;53.148;8.234;2023-06-26T03:07:54;9.32;;;6.00;;
14903;SDS011;7543;53.148;8.234;2023-06-26T03:10:22;7.72;;;5.95;;
14903;SDS011;7543;53.148;8.234;2023-06-26T03:12:51;9.27;;;5.93;;
14903;SDS011;7543;53.148;8.234;2023-06-26T03:15:19;11.95;;;5.97;;
14903;SDS011;7543;53.148;8.234;2023-06-26T03:17:47;7.70;;;5.72;;
14903;SDS011;7543;53.148;8.234;2023-06-26T03:20:22;6.70;;;5.65;;
14903;SDS011;7543;53.148;8.234;2023-06-26T03:22:54;8.40;;;6.50;;
14903;SDS011;7543;53.148;8.234;2023-06-26T03:25:24;9.25;;;6.53;;
14903;SDS011;7543;53.148;8.234;2023-06-26T03:28:04;9.27;;;6.20;;
14903;SDS011;7543;53.148;8.234;2023-06-26T03:30:34;10.15;;;6.15;;
14903;SDS011;7543;53.148;8.234;2023-06-26T03:33:03;8.07;;;5.95;;
14903;SDS011;7543;53.148;8.234;2023-06-26T03:35:33;8.48;;;5.50;;
14903;SDS011;7543;53.148;8.234;2023-06-26T03:38:01;7.38;;;5.82;;
14903;SDS011;7543;53.148;8.234;2023-06-26T03:40:31;7.32;;;5.78;;
14903;SDS011;7543;53.148;8.234;2023-06-26T03:43:00;6.55;;;4.95;;
14903;SDS011;7543;53.148;8.234;2023-06-26T03:45:31;7.28;;;5.57;;
14903;SDS011;7543;53.148;8.234;2023-06-26T03:47:59;7.82;;;5.68;;
14903;SDS011;7543;53.148;8.234;2023-06-26T03:50:28;9.50;;;5.30;;
14903;SDS011;7543;53.148;8.234;2023-06-26T03:52:59;8.35;;;6.18;;
14903;SDS011;7543;53.148;8.234;2023-06-26T03:55:27;6.57;;;5.45;;
14903;SDS011;7543;53.148;8.234;2023-06-26T03:57:56;9.60;;;5.70;;
14903;SDS011;7543;53.148;8.234;2023-06-26T04:00:24;7.72;;;5.25;;
14903;SDS011;7543;53.148;8.234;2023-06-26T04:02:52;9.68;;;5.97;;
14903;SDS011;7543;53.148;8.234;2023-06-26T04:05:21;6.70;;;5.15;;
14903;SDS011;7543;53.148;8.234;2023-06-26T04:07:50;8.23;;;5.50;;
14903;SDS011;7543;53.148;8.234;2023-06-26T04:10:21;5.82;;;4.85;;
14903;SDS011;7543;53.148;8.234;2023-06-26T04:12:49;9.25;;;5.60;;
14903;SDS011;7543;53.148;8.234;2023-06-26T04:15:17;6.03;;;4.97;;
14903;SDS011;7543;53.148;8.234;2023-06-26T04:17:46;7.22;;;5.50;;
14903;SDS011;7543;53.148;8.234;2023-06-26T04:20:14;6.78;;;5.30;;
14903;SDS011;7543;53.148;8.234;2023-06-26T04:22:43;7.57;;;5.20;;
14903;SDS011;7543;53.148;8.234;2023-06-26T04:25:11;9.05;;;5.63;;
14903;SDS011;7543;53.148;8.234;2023-06-26T04:27:41;10.52;;;5.57;;
14903;SDS011;7543;53.148;8.234;2023-06-26T04:30:10;10.07;;;5.88;;
14903;SDS011;7543;53.148;8.234;2023-06-26T04:32:39;6.32;;;5.28;;
14903;SDS011;7543;53.148;8.234;2023-06-26T04:35:07;8.07;;;5.70;;
14903;SDS011;7543;53.148;8.234;2023-06-26T04:37:36;7.00;;;5.45;;
14903;SDS011;7543;53.148;8.234;2023-06-26T04:40:05;6.63;;;5.05;;
14903;SDS011;7543;53.148;8.234;2023-06-26T04:42:36;8.90;;;5.50;;
14903;SDS011;7543;53.148;8.234;2023-06-26T04:45:06;10.80;;;5.07;;
14903;SDS011;7543;53.148;8.234;2023-06-26T04:47:35;7.13;;;5.43;;
14903;SDS011;7543;53.148;8.234;2023-06-26T04:50:04;7.95;;;5.57;;
14903;SDS011;7543;53.148;8.234;2023-06-26T04:52:33;7.07;;;5.53;;
14903;SDS011;7543;53.148;8.234;2023-06-26T04:55:01;10.55;;;5.65;;
14903;SDS011;7543;53.148;8.234;2023-06-26T04:57:30;5.78;;;5.05;;
14903;SDS011;7543;53.148;8.234;2023-06-26T04:59:59;7.35;;;5.70;;
14903;SDS011;7543;53.148;8.234;2023-06-26T05:02:28;7.57;;;5.43;;
14903;SDS011;7543;53.148;8.234;2023-06-26T05:04:57;6.50;;;5.32;;
14903;SDS011;7543;53.148;8.234;2023-06-26T05:07:25;6.20;;;5.00;;
14903;SDS011;7543;53.148;8.234;2023-06-26T05:09:53;7.07;;;5.32;;
14903;SDS011;7543;53.148;8.234;2023-06-26T05:12:22;8.90;;;5.45;;
14903;SDS011;7543;53.148;8.234;2023-06-26T05:14:50;9.02;;;5.57;;
14903;SDS011;7543;53.148;8.234;2023-06-26T05:17:18;9.02;;;5.47;;
14903;SDS011;7543;53.148;8.234;2023-06-26T05:19:48;7.68;;;5.60;;
14903;SDS011;7543;53.148;8.234;2023-06-26T05:22:16;8.40;;;5.47;;
14903;SDS011;7543;53.148;8.234;2023-06-26T05:24:46;7.30;;;5.57;;
14903;SDS011;7543;53.148;8.234;2023-06-26T05:27:15;9.48;;;5.78;;
14903;SDS011;7543;53.148;8.234;2023-06-26T05:29:48;9.18;;;5.82;;
14903;SDS011;7543;53.148;8.234;2023-06-26T05:32:17;8.35;;;5.38;;
14903;SDS011;7543;53.148;8.234;2023-06-26T05:34:48;7.28;;;5.45;;
14903;SDS011;7543;53.148;8.234;2023-06-26T05:37:17;7.85;;;5.18;;
14903;SDS011;7543;53.148;8.234;2023-06-26T05:39:48;7.28;;;5.80;;
14903;SDS011;7543;53.148;8.234;2023-06-26T05:42:17;7.55;;;5.57;;
14903;SDS011;7543;53.148;8.234;2023-06-26T05:44:45;11.63;;;5.90;;
14903;SDS011;7543;53.148;8.234;2023-06-26T05:47:14;7.75;;;5.60;;
14903;SDS011;7543;53.148;8.234;2023-06-26T05:49:42;8.50;;;5.93;;
14903;SDS011;7543;53.148;8.234;2023-06-26T05:52:12;7.72;;;5.70;;
14903;SDS011;7543;53.148;8.234;2023-06-26T05:54:41;8.45;;;6.00;;
14903;SDS011;7543;53.148;8.234;2023-06-26T05:57:10;7.93;;;5.90;;
14903;SDS011;7543;53.148;8.234;2023-06-26T05:59:40;9.70;;;6.32;;
14903;SDS011;7543;53.148;8.234;2023-06-26T06:02:11;7.68;;;5.68;;
14903;SDS011;7543;53.148;8.234;2023-06-26T06:04:39;9.18;;;6.50;;
14903;SDS011;7543;53.148;8.234;2023-06-26T06:07:08;7.78;;;5.90;;
14903;SDS011;7543;53.148;8.234;2023-06-26T06:09:37;10.43;;;6.75;;
14903;SDS011;7543;53.148;8.234;2023-06-26T06:12:07;10.43;;;6.90;;
14903;SDS011;7543;53.148;8.234;2023-06-26T06:14:35;8.65;;;6.50;;
14903;SDS011;7543;53.148;8.234;2023-06-26T06:17:04;8.95;;;6.60;;
14903;SDS011;7543;53.148;8.234;2023-06-26T06:19:32;10.55;;;7.05;;
14903;SDS011;7543;53.148;8.234;2023-06-26T06:22:00;10.70;;;6.63;;
14903;SDS011;7543;53.148;8.234;2023-06-26T06:24:29;10.05;;;7.00;;
14903;SDS011;7543;53.148;8.234;2023-06-26T06:26:58;9.05;;;6.25;;
14903;SDS011;7543;53.148;8.234;2023-06-26T06:29:27;10.07;;;6.65;;
14903;SDS011;7543;53.148;8.234;2023-06-26T06:31:56;12.25;;;6.47;;
14903;SDS011;7543;53.148;8.234;2023-06-26T06:34:24;9.25;;;6.72;;
14903;SDS011;7543;53.148;8.234;2023-06-26T06:36:52;9.40;;;6.57;;
14903;SDS011;7543;53.148;8.234;2023-06-26T06:39:21;11.23;;;7.22;;
14903;SDS011;7543;53.148;8.234;2023-06-26T06:41:49;8.57;;;6.70;;
14903;SDS011;7543;53.148;8.234;2023-06-26T06:44:19;8.50;;;6.30;;
14903;SDS011;7543;53.148;8.234;2023-06-26T06:46:47;10.50;;;6.10;;
14903;SDS011;7543;53.148;8.234;2023-06-26T06:49:15;10.52;;;7.25;;
14903;SDS011;7543;53.148;8.234;2023-06-26T06:51:44;10.40;;;6.45;;
14903;SDS011;7543;53.148;8.234;2023-06-26T06:54:12;9.88;;;7.10;;
14903;SDS011;7543;53.148;8.234;2023-06-26T06:56:40;8.35;;;6.10;;
14903;SDS011;7543;53.148;8.234;2023-06-26T06:59:09;9.18;;;6.60;;
14903;SDS011;7543;53.148;8.234;2023-06-26T07:01:38;10.73;;;6.15;;
14903;SDS011;7543;53.148;8.234;2023-06-26T07:04:07;8.93;;;6.47;;
14903;SDS011;7543;53.148;8.234;2023-06-26T07:06:36;8.98;;;6.65;;
14903;SDS011;7543;53.148;8.234;2023-06-26T07:09:04;11.43;;;6.90;;
14903;SDS011;7543;53.148;8.234;2023-06-26T07:11:33;9.88;;;6.63;;
14903;SDS011;7543;53.148;8.234;2023-06-26T07:14:01;12.77;;;7.15;;
14903;SDS011;7543;53.148;8.234;2023-06-26T07:16:30;9.40;;;7.45;;
14903;SDS011;7543;53.148;8.234;2023-06-26T07:18:59;9.68;;;6.97;;
14903;SDS011;7543;53.148;8.234;2023-06-26T07:21:28;9.60;;;6.38;;
14903;SDS011;7543;53.148;8.234;2023-06-26T07:23:56;10.38;;;6.70;;
14903;SDS011;7543;53.148;8.234;2023-06-26T07:26:25;8.43;;;6.20;;
14903;SDS011;7543;53.148;8.234;2023-06-26T07:28:54;11.63;;;6.50;;
14903;SDS011;7543;53.148;8.234;2023-06-26T07:31:23;10.93;;;5.93;;
14903;SDS011;7543;53.148;8.234;2023-06-26T07:33:51;8.52;;;6.30;;
14903;SDS011;7543;53.148;8.234;2023-06-26T07:36:21;10.15;;;6.72;;
14903;SDS011;7543;53.148;8.234;2023-06-26T07:38:49;10.85;;;6.65;;
14903;SDS011;7543;53.148;8.234;2023-06-26T07:41:18;10.57;;;6.65;;
14903;SDS011;7543;53.148;8.234;2023-06-26T07:43:46;10.70;;;6.40;;
14903;SDS011;7543;53.148;8.234;2023-06-26T07:46:14;13.15;;;6.57;;
14903;SDS011;7543;53.148;8.234;2023-06-26T07:48:43;11.82;;;6.97;;
14903;SDS011;7543;53.148;8.234;2023-06-26T07:51:11;13.02;;;8.02;;
14903;SDS011;7543;53.148;8.234;2023-06-26T07:53:41;10.77;;;7.32;;
14903;SDS011;7543;53.148;8.234;2023-06-26T07:56:09;12.02;;;7.40;;
14903;SDS011;7543;53.148;8.234;2023-06-26T07:58:38;10.10;;;7.32;;
14903;SDS011;7543;53.148;8.234;2023-06-26T08:01:06;15.88;;;7.25;;
14903;SDS011;7543;53.148;8.234;2023-06-26T08:03:34;11.85;;;7.75;;
14903;SDS011;7543;53.148;8.234;2023-06-26T08:06:03;13.05;;;7.55;;
14903;SDS011;7543;53.148;8.234;2023-06-26T08:08:31;13.63;;;7.75;;
14903;SDS011;7543;53.148;8.234;2023-06-26T08:11:01;11.45;;;6.80;;
14903;SDS011;7543;53.148;8.234;2023-06-26T08:13:29;11.70;;;7.68;;
14903;SDS011;7543;53.148;8.234;2023-06-26T08:15:58;12.37;;;7.83;;
14903;SDS011;7543;53.148;8.234;2023-06-26T08:18:29;13.93;;;7.97;;
14903;SDS011;7543;53.148;8.234;2023-06-26T08:20:58;10.02;;;7.15;;
14903;SDS011;7543;53.148;8.234;2023-06-26T08:23:26;10.00;;;6.55;;
14903;SDS011;7543;53.148;8.234;2023-06-26T08:25:54;11.87;;;6.30;;
14903;SDS011;7543;53.148;8.234;2023-06-26T08:28:26;9.27;;;5.13;;
14903;SDS011;7543;53.148;8.234;2023-06-26T08:30:55;11.43;;;4.82;;
14903;SDS011;7543;53.148;8.234;2023-06-26T08:33:23;7.18;;;4.32;;
14903;SDS011;7543;53.148;8.234;2023-06-26T08:35:51;8.85;;;4.22;;
14903;SDS011;7543;53.148;8.234;2023-06-26T08:38:20;6.67;;;3.80;;
14903;SDS011;7543;53.148;8.234;2023-06-26T08:40:48;6.27;;;3.30;;
14903;SDS011;7543;53.148;8.234;2023-06-26T08:43:17;8.07;;;3.05;;
14903;SDS011;7543;53.148;8.234;2023-06-26T08:45:47;7.05;;;3.42;;
14903;SDS011;7543;53.148;8.234;2023-06-26T08:48:18;6.17;;;3.10;;
14903;SDS011;7543;53.148;8.234;2023-06-26T08:50:47;6.25;;;3.00;;
14903;SDS011;7543;53.148;8.234;2023-06-26T08:53:19;7.68;;;3.10;;
14903;SDS011;7543;53.148;8.234;2023-06-26T08:55:52;5.65;;;2.50;;
14903;SDS011;7543;53.148;8.234;2023-06-26T08:58:20;8.52;;;2.78;;
14903;SDS011;7543;53.148;8.234;2023-06-26T09:00:50;4.72;;;2.40;;
14903;SDS011;7543;53.148;8.234;2023-06-26T09:03:18;6.38;;;3.10;;
14903;SDS011;7543;53.148;8.234;2023-06-26T09:05:47;7.00;;;2.78;;
14903;SDS011;7543;53.148;8.234;2023-06-26T09:08:15;5.18;;;2.70;;
14903;SDS011;7543;53.148;8.234;2023-06-26T09:10:43;6.07;;;2.00;;
14903;SDS011;7543;53.148;8.234;2023-06-26T09:13:12;6.20;;;2.38;;
14903;SDS011;7543;53.148;8.234;2023-06-26T09:15:42;4.53;;;2.00;;
14903;SDS011;7543;53.148;8.234;2023-06-26T09:18:12;6.28;;;2.10;;
14903;SDS011;7543;53.148;8.234;2023-06-26T09:20:40;8.50;;;2.10;;
14903;SDS011;7543;53.148;8.234;2023-06-26T09:23:08;4.55;;;1.90;;
14903;SDS011;7543;53.148;8.234;2023-06-26T09:25:38;4.68;;;1.52;;
14903;SDS011;7543;53.148;8.234;2023-06-26T09:28:07;4.20;;;1.58;;
14903;SDS011;7543;53.148;8.234;2023-06-26T09:30:36;3.53;;;1.50;;
14903;SDS011;7543;53.148;8.234;2023-06-26T09:33:14;2.78;;;1.42;;
14903;SDS011;7543;53.148;8.234;2023-06-26T09:35:43;3.10;;;1.23;;
14903;SDS011;7543;53.148;8.234;2023-06-26T09:38:11;3.47;;;1.05;;
14903;SDS011;7543;53.148;8.234;2023-06-26T09:40:40;3.35;;;1.20;;
14903;SDS011;7543;53.148;8.234;2023-06-26T09:43:09;4.50;;;1.50;;
14903;SDS011;7543;53.148;8.234;2023-06-26T09:45:38;5.05;;;1.30;;
14903;SDS011;7543;53.148;8.234;2023-06-26T09:48:07;3.35;;;1.23;;
14903;SDS011;7543;53.148;8.234;2023-06-26T09:50:37;6.32;;;1.67;;
14903;SDS011;7543;53.148;8.234;2023-06-26T09:53:09;6.90;;;1.75;;
14903;SDS011;7543;53.148;8.234;2023-06-26T09:55:40;2.33;;;1.05;;
14903;SDS011;7543;53.148;8.234;2023-06-26T09:58:10;1.73;;;0.98;;
14903;SDS011;7543;53.148;8.234;2023-06-26T10:00:41;3.42;;;1.20;;
14903;SDS011;7543;53.148;8.234;2023-06-26T10:03:10;1.80;;;1.08;;
14903;SDS011;7543;53.148;8.234;2023-06-26T10:05:40;2.58;;;1.15;;
14903;SDS011;7543;53.148;8.234;2023-06-26T10:08:09;2.28;;;1.30;;
14903;SDS011;7543;53.148;8.234;2023-06-26T10:10:40;3.72;;;1.02;;
14903;SDS011;7543;53.148;8.234;2023-06-26T10:13:11;2.80;;;1.42;;
14903;SDS011;7543;53.148;8.234;2023-06-26T10:15:44;3.67;;;1.10;;
14903;SDS011;7543;53.148;8.234;2023-06-26T10:18:13;4.18;;;1.08;;
14903;SDS011;7543;53.148;8.234;2023-06-26T10:20:45;4.47;;;1.35;;
14903;SDS011;7543;53.148;8.234;2023-06-26T10:23:15;2.25;;;0.95;;
14903;SDS011;7543;53.148;8.234;2023-06-26T10:25:45;1.55;;;0.90;;
14903;SDS011;7543;53.148;8.234;2023-06-26T10:28:16;7.88;;;1.33;;
14903;SDS011;7543;53.148;8.234;2023-06-26T10:30:45;2.83;;;1.00;;
14903;SDS011;7543;53.148;8.234;2023-06-26T10:33:17;3.13;;;1.10;;
14903;SDS011;7543;53.148;8.234;2023-06-26T10:35:47;2.75;;;1.17;;
14903;SDS011;7543;53.148;8.234;2023-06-26T10:38:16;2.42;;;1.23;;
14903;SDS011;7543;53.148;8.234;2023-06-26T10:40:46;4.00;;;1.13;;
14903;SDS011;7543;53.148;8.234;2023-06-26T10:43:15;3.47;;;1.42;;
14903;SDS011;7543;53.148;8.234;2023-06-26T10:45:45;2.03;;;1.17;;
14903;SDS011;7543;53.148;8.234;2023-06-26T10:48:19;3.55;;;1.30;;
14903;SDS011;7543;53.148;8.234;2023-06-26T10:50:48;4.32;;;1.20;;
14903;SDS011;7543;53.148;8.234;2023-06-26T10:53:21;2.20;;;1.17;;
14903;SDS011;7543;53.148;8.234;2023-06-26T10:55:54;3.50;;;1.20;;
14903;SDS011;7543;53.148;8.234;2023-06-26T11:01:14;4.05;;;1.10;;
14903;SDS011;7543;53.148;8.234;2023-06-26T11:03:46;2.33;;;1.20;;
14903;SDS011;7543;53.148;8.234;2023-06-26T11:06:19;3.83;;;1.27;;
14903;SDS011;7543;53.148;8.234;2023-06-26T11:08:49;3.03;;;1.27;;
14903;SDS011;7543;53.148;8.234;2023-06-26T11:11:19;3.53;;;1.20;;
14903;SDS011;7543;53.148;8.234;2023-06-26T11:13:48;2.33;;;1.00;;
14903;SDS011;7543;53.148;8.234;2023-06-26T11:16:16;3.97;;;1.20;;
14903;SDS011;7543;53.148;8.234;2023-06-26T11:18:45;2.78;;;1.30;;
14903;SDS011;7543;53.148;8.234;2023-06-26T11:21:13;2.15;;;1.45;;
14903;SDS011;7543;53.148;8.234;2023-06-26T11:23:43;2.58;;;1.20;;
14903;SDS011;7543;53.148;8.234;2023-06-26T11:26:13;2.95;;;1.38;;
14903;SDS011;7543;53.148;8.234;2023-06-26T11:28:46;4.40;;;1.30;;
14903;SDS011;7543;53.148;8.234;2023-06-26T11:31:24;1.83;;;1.10;;
14903;SDS011;7543;53.148;8.234;2023-06-26T11:33:53;1.92;;;1.27;;
14903;SDS011;7543;53.148;8.234;2023-06-26T11:36:23;4.38;;;1.50;;
14903;SDS011;7543;53.148;8.234;2023-06-26T11:38:54;1.48;;;1.13;;
14903;SDS011;7543;53.148;8.234;2023-06-26T11:41:23;2.75;;;1.48;;
14903;SDS011;7543;53.148;8.234;2023-06-26T11:43:53;2.92;;;1.25;;
14903;SDS011;7543;53.148;8.234;2023-06-26T11:46:22;3.13;;;1.33;;
14903;SDS011;7543;53.148;8.234;2023-06-26T11:48:50;1.73;;;1.17;;
14903;SDS011;7543;53.148;8.234;2023-06-26T11:51:19;4.20;;;1.50;;
14903;SDS011;7543;53.148;8.234;2023-06-26T11:53:48;2.55;;;1.45;;
14903;SDS011;7543;53.148;8.234;2023-06-26T11:56:18;1.45;;;1.10;;
14903;SDS011;7543;53.148;8.234;2023-06-26T11:58:55;3.33;;;1.40;;
14903;SDS011;7543;53.148;8.234;2023-06-26T12:01:25;2.03;;;1.10;;
14903;SDS011;7543;53.148;8.234;2023-06-26T12:03:57;2.95;;;1.20;;
14903;SDS011;7543;53.148;8.234;2023-06-26T12:06:27;1.70;;;1.10;;
14903;SDS011;7543;53.148;8.234;2023-06-26T12:08:55;3.17;;;1.13;;
14903;SDS011;7543;53.148;8.234;2023-06-26T12:11:25;2.60;;;1.40;;
14903;SDS011;7543;53.148;8.234;2023-06-26T12:13:55;2.30;;;1.10;;
14903;SDS011;7543;53.148;8.234;2023-06-26T12:16:24;1.70;;;1.35;;
14903;SDS011;7543;53.148;8.234;2023-06-26T12:18:57;5.55;;;1.42;;
14903;SDS011;7543;53.148;8.234;2023-06-26T12:21:45;3.13;;;1.40;;
14903;SDS011;7543;53.148;8.234;2023-06-26T12:24:16;2.47;;;1.40;;
14903;SDS011;7543;53.148;8.234;2023-06-26T12:26:47;3.08;;;1.48;;
14903;SDS011;7543;53.148;8.234;2023-06-26T12:29:18;4.55;;;1.42;;
14903;SDS011;7543;53.148;8.234;2023-06-26T12:31:51;2.72;;;1.40;;
14903;SDS011;7543;53.148;8.234;2023-06-26T12:34:20;2.03;;;1.20;;
14903;SDS011;7543;53.148;8.234;2023-06-26T12:36:51;1.67;;;1.13;;
14903;SDS011;7543;53.148;8.234;2023-06-26T12:39:20;2.70;;;1.20;;
14903;SDS011;7543;53.148;8.234;2023-06-26T12:41:51;4.20;;;1.40;;
14903;SDS011;7543;53.148;8.234;2023-06-26T12:44:21;2.53;;;1.55;;
14903;SDS011;7543;53.148;8.234;2023-06-26T12:46:53;2.60;;;1.33;;
14903;SDS011;7543;53.148;8.234;2023-06-26T12:49:28;5.18;;;1.10;;
14903;SDS011;7543;53.148;8.234;2023-06-26T12:51:58;3.03;;;1.60;;
14903;SDS011;7543;53.148;8.234;2023-06-26T12:54:27;3.58;;;1.60;;
14903;SDS011;7543;53.148;8.234;2023-06-26T12:56:57;1.98;;;1.40;;
14903;SDS011;7543;53.148;8.234;2023-06-26T12:59:25;2.53;;;1.40;;
14903;SDS011;7543;53.148;8.234;2023-06-26T13:01:54;2.80;;;1.30;;
14903;SDS011;7543;53.148;8.234;2023-06-26T13:04:23;3.85;;;1.50;;
14903;SDS011;7543;53.148;8.234;2023-06-26T13:06:51;2.35;;;1.40;;
14903;SDS011;7543;53.148;8.234;2023-06-26T13:09:21;1.48;;;1.10;;
14903;SDS011;7543;53.148;8.234;2023-06-26T13:11:50;3.05;;;1.27;;
14903;SDS011;7543;53.148;8.234;2023-06-26T13:14:20;2.10;;;1.50;;
14903;SDS011;7543;53.148;8.234;2023-06-26T13:16:49;1.73;;;1.27;;
14903;SDS011;7543;53.148;8.234;2023-06-26T13:19:17;4.68;;;1.60;;
14903;SDS011;7543;53.148;8.234;2023-06-26T13:21:46;2.28;;;1.30;;
14903;SDS011;7543;53.148;8.234;2023-06-26T13:24:14;5.13;;;1.50;;
14903;SDS011;7543;53.148;8.234;2023-06-26T13:26:43;2.75;;;1.50;;
14903;SDS011;7543;53.148;8.234;2023-06-26T13:29:11;2.50;;;1.33;;
14903;SDS011;7543;53.148;8.234;2023-06-26T13:31:41;2.63;;;1.65;;
14903;SDS011;7543;53.148;8.234;2023-06-26T13:34:09;3.53;;;1.45;;
14903;SDS011;7543;53.148;8.234;2023-06-26T13:36:48;2.67;;;1.40;;
14903;SDS011;7543;53.148;8.234;2023-06-26T13:39:16;1.85;;;1.25;;
14903;SDS011;7543;53.148;8.234;2023-06-26T13:41:44;4.70;;;1.60;;
14903;SDS011;7543;53.148;8.234;2023-06-26T13:44:13;6.75;;;2.00;;
14903;SDS011;7543;53.148;8.234;2023-06-26T13:46:42;2.92;;;1.27;;
14903;SDS011;7543;53.148;8.234;2023-06-26T13:49:11;6.93;;;1.60;;
14903;SDS011;7543;53.148;8.234;2023-06-26T13:51:39;2.50;;;1.30;;
14903;SDS011;7543;53.148;8.234;2023-06-26T13:54:12;2.95;;;1.42;;
14903;SDS011;7543;53.148;8.234;2023-06-26T13:56:40;2.95;;;1.55;;
14903;SDS011;7543;53.148;8.234;2023-06-26T13:59:09;3.55;;;1.60;;
14903;SDS011;7543;53.148;8.234;2023-06-26T14:01:39;2.67;;;1.23;;
14903;SDS011;7543;53.148;8.234;2023-06-26T14:04:10;2.85;;;1.42;;
14903;SDS011;7543;53.148;8.234;2023-06-26T14:06:39;7.82;;;1.50;;
14903;SDS011;7543;53.148;8.234;2023-06-26T14:09:07;4.60;;;1.33;;
14903;SDS011;7543;53.148;8.234;2023-06-26T14:11:36;2.90;;;1.52;;
14903;SDS011;7543;53.148;8.234;2023-06-26T14:14:04;3.85;;;1.30;;
14903;SDS011;7543;53.148;8.234;2023-06-26T14:16:33;7.15;;;1.60;;
14903;SDS011;7543;53.148;8.234;2023-06-26T14:19:01;4.63;;;1.30;;
14903;SDS011;7543;53.148;8.234;2023-06-26T14:21:31;2.45;;;1.30;;
14903;SDS011;7543;53.148;8.234;2023-06-26T14:24:00;2.15;;;1.17;;
14903;SDS011;7543;53.148;8.234;2023-06-26T14:26:29;7.57;;;1.50;;
14903;SDS011;7543;53.148;8.234;2023-06-26T14:28:59;3.53;;;1.48;;
14903;SDS011;7543;53.148;8.234;2023-06-26T14:31:27;4.20;;;1.40;;
14903;SDS011;7543;53.148;8.234;2023-06-26T14:33:55;1.77;;;1.00;;
14903;SDS011;7543;53.148;8.234;2023-06-26T14:36:25;4.35;;;1.23;;
14903;SDS011;7543;53.148;8.234;2023-06-26T14:38:56;3.85;;;1.20;;
14903;SDS011;7543;53.148;8.234;2023-06-26T14:41:25;4.80;;;1.55;;
14903;SDS011;7543;53.148;8.234;2023-06-26T14:43:54;1.85;;;1.30;;
14903;SDS011;7543;53.148;8.234;2023-06-26T14:46:23;2.50;;;1.30;;
14903;SDS011;7543;53.148;8.234;2023-06-26T14:48:51;3.47;;;1.23;;
14903;SDS011;7543;53.148;8.234;2023-06-26T14:51:22;6.78;;;1.40;;
14903;SDS011;7543;53.148;8.234;2023-06-26T14:53:51;3.58;;;1.50;;
14903;SDS011;7543;53.148;8.234;2023-06-26T14:56:20;2.72;;;1.40;;
14903;SDS011;7543;53.148;8.234;2023-06-26T14:58:49;4.03;;;1.70;;
14903;SDS011;7543;53.148;8.234;2023-06-26T15:01:19;2.67;;;1.13;;
14903;SDS011;7543;53.148;8.234;2023-06-26T15:03:47;2.97;;;1.30;;
14903;SDS011;7543;53.148;8.234;2023-06-26T15:06:15;3.53;;;1.13;;
14903;SDS011;7543;53.148;8.234;2023-06-26T15:08:44;4.35;;;1.23;;
14903;SDS011;7543;53.148;8.234;2023-06-26T15:11:12;3.30;;;1.23;;
14903;SDS011;7543;53.148;8.234;2023-06-26T15:13:42;5.10;;;1.17;;
14903;SDS011;7543;53.148;8.234;2023-06-26T15:16:10;1.77;;;1.25;;